Jamaica Beach, Texas
Current Conditions -  °F | °C
As of 7:52 PM on Wednesday 22 Oct 2014 (Local Time) from KGLS Reporting Station
Clear Clear  
Wind Chill: 73°   Ceiling: Unl
Heat Index: 73°   Visibility: 10mi
Dew Point: 61°   Wind: 7mph
Humidity: 66%   Direction: 90°E
Pressure: 30.06"   Gusts: NA
Location:  29.3093°N, 94.7816°W
Report Text: KGLS 230052Z AUTO 09006KT 10SM CLR 23/16 A3006 RMK AO2 SLP179 T02280161
Loading
Personal Weather Stations






























Interactive Weather Map
Tropical Storm Tracking
New forecast layout! Learn more

10-Day Weather Forecast

Advertisements
Track Severe Weather on mobile